Observations for CARDIFF-WALES ARPT, United Kingdom (EGFF)

EGFF 130850Z AUTO 11022KT 9999 BKN031 05/01 Q1012   
EGFF 130820Z AUTO 11021KT 9999 FEW032 05/01 Q1012   
EGFF 130750Z AUTO 11021KT 9999 BKN030 05/01 Q1011   
EGFF 130720Z AUTO 11021KT 9999 BKN032 05/01 Q1011   
EGFF 130650Z AUTO 11020KT 9999 FEW033 05/01 Q1011   
EGFF 130620Z AUTO 11019KT 9999 SCT030 05/01 Q1011   
EGFF 130550Z AUTO 11020KT 9999 FEW031 05/01 Q1011   
EGFF 130520Z AUTO 11018KT 9999 NCD 05/01 Q1011  
EGFF 130450Z AUTO 12015KT 9999 FEW033 05/01 Q1011   
EGFF 130420Z AUTO 11017KT 9999 NCD 05/00 Q1011  
EGFF 130350Z AUTO 11018KT 9999 NCD 05/00 Q1011  
EGFF 130320Z AUTO 11019KT 9999 SCT036 05/00 Q1011   
EGFF 130250Z AUTO 11020G31KT 9999 NCD 05/00 Q1011   
EGFF 130220Z AUTO 10019G30KT 9999 NCD 05/00 Q1011   
EGFF 130150Z AUTO 10016G26KT 9999 FEW038 05/00 Q1011
EGFF 130120Z AUTO 11018KT 9999 FEW036 06/01 Q1012   
EGFF 130050Z AUTO 11018KT 9999 SCT034 06/01 Q1012   
EGFF 130020Z AUTO 11018KT 9999 SCT031 06/02 Q1013   
EGFF 122350Z AUTO 11017KT 9999 SCT030 06/02 Q1013   
EGFF 122320Z AUTO 11017KT 9999 FEW034 06/03 Q1013   
EGFF 122250Z AUTO 12016KT 9999 BKN033 06/03 Q1013   
EGFF 122220Z AUTO 11018KT 9999 BKN033 06/03 Q1014   
EGFF 122150Z AUTO 11017KT 9999 SCT029 06/03 Q1014   
EGFF 122120Z AUTO 12016KT 9999 OVC031 06/03 Q1014   
EGFF 122050Z AUTO 12017KT 9999 OVC030 06/03 Q1015   
EGFF 122020Z AUTO 12020KT 9999 OVC030 06/03 Q1015   
EGFF 121950Z AUTO 12020KT 9999 FEW017 OVC029 06/04 Q1015
EGFF 121920Z AUTO 12017KT 9999 BKN032 06/04 Q1015   
EGFF 121850Z AUTO 12018KT 9999 BKN032 06/04 Q1015   
EGFF 121820Z AUTO 12018KT 9999 BKN031 06/04 Q1015   
EGFF 121750Z AUTO 12016KT 9999 OVC030 06/04 Q1016   
EGFF 121720Z AUTO 13018KT 9999 OVC024 07/05 Q1016   
EGFF 121650Z AUTO 13016KT 9999 BKN023 OVC027 07/05 Q1016
EGFF 121620Z AUTO 13017KT 9999 SCT025 BKN029 07/05 Q1016
EGFF 121550Z AUTO 13018KT 9999 NCD 07/05 Q1016  
EGFF 121520Z AUTO 13018KT 9999 NCD 08/05 Q1017  
EGFF 121450Z AUTO 12020KT 9999 NCD 08/05 Q1017  
EGFF 121420Z AUTO 13018KT 9999 FEW017 08/06 Q1017   
EGFF 121350Z AUTO 14015KT 9999 NCD 08/06 Q1017  
EGFF 121320Z AUTO 14014KT 9999 NCD 09/06 Q1017  
EGFF 121250Z AUTO 14016KT 9999 FEW020 08/06 Q1018   
EGFF 121220Z AUTO 14015KT 100V170 9999 SCT017 BKN036 08/06 Q1018
EGFF 121150Z AUTO 13017KT 9999 FEW018 BKN029 OVC041 08/06 Q1018 
EGFF 121120Z AUTO 13015KT 9999 OVC023 08/07 Q1019   
EGFF 121050Z AUTO 12014KT 9999 OVC023 08/07 Q1019   
EGFF 121020Z AUTO 12014KT 9999 BKN023 08/07 Q1019   
EGFF 120950Z AUTO 12014KT 9999 SCT017 BKN023 BKN028 08/07 Q1019 
EGFF 120920Z AUTO 13015KT 9999 BKN013 OVC021 08/07 Q1019
EGFF 120850Z AUTO 12013KT 9999 BKN013 OVC039 08/07 Q1019